Time;durP1;ratioP1;P1;durP2;ratioP2;P2;SDS_P1;SDS_P2;PMS_P1;PMS_P2;Temp;Humidity;BMP_temperature;BMP_pressure;BME280_temperature;BME280_humidity;BME280_pressure;Samples;Min_cycle;Max_cycle;Signal;HPM_P1;HPM_P2
2022/11/21 00:01:38;;;;;;;3.60;1.40;;;9.30;99.90;;;;;;945298;151;27858;-79
2022/11/21 00:04:06;;;;;;;2.50;1.50;;;9.30;99.90;;;;;;945118;151;27381;-78
2022/11/21 00:06:31;;;;;;;3.30;1.70;;;9.30;99.90;;;;;;944449;149;27340;-77
2022/11/21 00:08:58;;;;;;;1.57;1.30;;;9.20;99.90;;;;;;945021;149;27434;-77
2022/11/21 00:11:24;;;;;;;1.97;1.53;;;9.20;99.90;;;;;;944788;151;27362;-77
2022/11/21 00:13:51;;;;;;;5.57;1.73;;;9.20;99.90;;;;;;945595;151;27717;-80
2022/11/21 00:16:18;;;;;;;3.63;1.50;;;9.20;99.90;;;;;;944878;148;27390;-77
2022/11/21 00:18:44;;;;;;;3.30;1.57;;;9.20;99.90;;;;;;944903;151;27332;-78
2022/11/21 00:21:11;;;;;;;4.63;1.57;;;9.20;99.90;;;;;;944969;149;27282;-78
2022/11/21 00:23:37;;;;;;;2.37;1.50;;;9.20;99.90;;;;;;944821;149;27407;-78
2022/11/21 00:26:07;;;;;;;5.30;1.63;;;9.20;99.90;;;;;;944916;149;27387;-80
2022/11/21 00:28:33;;;;;;;3.83;1.70;;;9.20;99.90;;;;;;944304;149;27495;-79
2022/11/21 00:31:00;;;;;;;3.43;1.70;;;9.20;99.90;;;;;;943383;149;27325;-77
2022/11/21 00:33:26;;;;;;;3.60;1.60;;;9.20;99.90;;;;;;943482;148;27347;-77
2022/11/21 00:35:53;;;;;;;2.37;1.53;;;9.20;99.90;;;;;;943396;148;27296;-77
2022/11/21 00:38:20;;;;;;;2.23;1.50;;;9.20;99.90;;;;;;943931;149;27343;-79
2022/11/21 00:40:46;;;;;;;3.93;1.83;;;9.20;99.90;;;;;;943929;148;27450;-79
2022/11/21 00:43:13;;;;;;;2.97;1.40;;;9.20;99.90;;;;;;943540;148;28091;-78
2022/11/21 00:45:39;;;;;;;3.13;1.23;;;9.10;99.90;;;;;;942958;149;27328;-79
2022/11/21 00:48:06;;;;;;;2.77;1.53;;;9.10;99.90;;;;;;942991;147;27425;-80
2022/11/21 00:50:33;;;;;;;2.70;1.70;;;9.10;99.90;;;;;;942795;149;27338;-79
2022/11/21 00:52:59;;;;;;;3.27;1.87;;;9.10;99.90;;;;;;943348;148;27863;-78
2022/11/21 00:55:26;;;;;;;2.17;1.60;;;9.00;99.90;;;;;;943178;149;27348;-80
2022/11/21 00:57:52;;;;;;;2.63;1.53;;;9.00;99.90;;;;;;943544;149;27403;-79
2022/11/21 01:00:19;;;;;;;2.13;1.27;;;9.00;99.90;;;;;;943634;148;27405;-80
2022/11/21 01:02:45;;;;;;;4.60;1.60;;;9.00;99.90;;;;;;944341;149;27410;-79
2022/11/21 01:05:12;;;;;;;5.77;2.00;;;8.90;99.90;;;;;;943491;149;27329;-81
2022/11/21 01:07:39;;;;;;;2.63;1.30;;;8.90;99.90;;;;;;944053;149;27433;-78
2022/11/21 01:10:06;;;;;;;3.73;1.60;;;9.00;99.90;;;;;;943828;149;27844;-78
2022/11/21 01:12:32;;;;;;;3.40;1.63;;;9.00;99.90;;;;;;943417;149;27340;-78
2022/11/21 01:14:59;;;;;;;4.63;1.77;;;9.00;99.90;;;;;;944153;149;27389;-78
2022/11/21 01:17:25;;;;;;;2.50;1.63;;;8.90;99.90;;;;;;943727;149;27330;-80
2022/11/21 01:19:52;;;;;;;7.33;2.73;;;9.00;99.90;;;;;;943975;148;27452;-79
2022/11/21 01:22:18;;;;;;;6.90;2.30;;;9.00;99.90;;;;;;943677;148;27469;-79
2022/11/21 01:24:45;;;;;;;4.37;1.73;;;9.00;99.90;;;;;;943623;149;27312;-79
2022/11/21 01:27:12;;;;;;;3.63;1.80;;;9.00;99.90;;;;;;943800;148;27308;-79
2022/11/21 01:29:38;;;;;;;4.80;2.10;;;9.00;99.90;;;;;;938773;151;27387;-78
2022/11/21 01:32:05;;;;;;;3.23;1.47;;;9.00;99.90;;;;;;939223;151;27382;-81
2022/11/21 01:34:31;;;;;;;3.07;1.63;;;9.00;99.90;;;;;;938377;151;27448;-78
2022/11/21 01:36:58;;;;;;;4.73;1.63;;;9.10;99.90;;;;;;936152;151;27366;-79
2022/11/21 01:39:25;;;;;;;2.07;1.53;;;9.10;99.90;;;;;;935485;151;27388;-79
2022/11/21 01:41:51;;;;;;;2.13;1.47;;;9.10;99.90;;;;;;938445;151;27398;-79
2022/11/21 01:44:20;;;;;;;2.60;1.60;;;9.10;99.90;;;;;;936220;151;27432;-80
2022/11/21 01:46:47;;;;;;;5.00;1.77;;;9.10;99.90;;;;;;938396;151;27518;-77
2022/11/21 01:49:16;;;;;;;2.93;1.70;;;9.10;99.90;;;;;;937852;151;27863;-79
2022/11/21 01:51:55;;;;;;;4.13;2.03;;;9.20;99.90;;;;;;936255;151;27332;-77
2022/11/21 01:54:24;;;;;;;4.53;1.87;;;9.20;99.90;;;;;;936472;151;27416;-80
2022/11/21 01:56:53;;;;;;;4.00;1.87;;;9.20;99.90;;;;;;935312;151;27371;-78
2022/11/21 01:59:23;;;;;;;3.73;2.00;;;9.20;99.90;;;;;;933225;151;27334;-79
2022/11/21 02:01:49;;;;;;;4.00;1.80;;;9.20;99.90;;;;;;937809;151;27431;-78
2022/11/21 02:04:16;;;;;;;5.70;2.40;;;9.20;99.90;;;;;;938309;151;27354;-80
2022/11/21 02:06:42;;;;;;;4.07;2.10;;;9.30;99.90;;;;;;937416;151;27390;-78
2022/11/21 02:09:09;;;;;;;4.70;2.13;;;9.30;99.90;;;;;;937010;148;27415;-79
2022/11/21 02:11:38;;;;;;;9.07;2.73;;;9.40;99.90;;;;;;940082;151;27404;-77
2022/11/21 02:14:05;;;;;;;4.27;1.90;;;9.40;99.90;;;;;;939015;151;28045;-78
2022/11/21 02:16:31;;;;;;;6.70;2.10;;;9.40;99.90;;;;;;936267;151;27441;-78
2022/11/21 02:18:58;;;;;;;6.23;2.37;;;9.50;99.90;;;;;;935184;151;27472;-78
2022/11/21 02:21:42;;;;;;;4.63;1.93;;;9.50;99.90;;;;;;936133;151;27424;-77
2022/11/21 02:24:21;;;;;;;7.33;1.97;;;9.60;99.90;;;;;;938924;151;27347;-78
2022/11/21 02:26:48;;;;;;;5.47;1.97;;;9.50;99.90;;;;;;934532;151;27467;-79
2022/11/21 02:29:14;;;;;;;4.60;2.00;;;9.50;99.90;;;;;;938983;149;27474;-79
2022/11/21 02:31:41;;;;;;;5.40;2.17;;;9.60;99.90;;;;;;943939;148;27421;-77
2022/11/21 02:34:08;;;;;;;6.50;1.97;;;9.60;99.90;;;;;;943551;149;27346;-78
2022/11/21 02:36:40;;;;;;;5.70;2.40;;;9.60;99.90;;;;;;943532;149;27331;-78
2022/11/21 02:39:07;;;;;;;5.27;2.20;;;9.60;99.90;;;;;;943964;149;27351;-78
2022/11/21 02:41:33;;;;;;;5.77;1.90;;;9.60;99.90;;;;;;943158;149;27426;-79
2022/11/21 02:44:00;;;;;;;3.53;1.83;;;9.60;99.90;;;;;;943938;149;27377;-81
2022/11/21 02:46:26;;;;;;;8.77;1.80;;;9.60;99.90;;;;;;938531;149;27906;-79
2022/11/21 02:48:53;;;;;;;4.33;2.00;;;9.60;99.90;;;;;;943181;149;27660;-79
2022/11/21 02:51:20;;;;;;;4.33;2.87;;;9.60;99.90;;;;;;943694;149;27317;-77
2022/11/21 02:53:46;;;;;;;5.47;1.90;;;9.50;99.90;;;;;;944162;148;27275;-78
2022/11/21 02:56:13;;;;;;;5.63;2.07;;;9.50;99.90;;;;;;943794;149;27446;-77
2022/11/21 02:58:39;;;;;;;4.97;2.33;;;9.50;99.90;;;;;;943857;149;27348;-78
2022/11/21 03:01:06;;;;;;;6.37;2.07;;;9.50;99.90;;;;;;943622;149;27368;-78
2022/11/21 03:03:32;;;;;;;3.53;2.10;;;9.40;99.90;;;;;;943455;149;27314;-78
2022/11/21 03:05:59;;;;;;;7.30;2.00;;;9.50;99.90;;;;;;943547;149;27385;-78
2022/11/21 03:08:26;;;;;;;6.10;2.13;;;9.40;99.90;;;;;;944335;148;27404;-80
2022/11/21 03:10:52;;;;;;;3.87;2.00;;;9.40;99.90;;;;;;943645;148;27357;-77
2022/11/21 03:13:19;;;;;;;6.63;2.10;;;9.40;99.90;;;;;;943390;149;27342;-79
2022/11/21 03:15:45;;;;;;;5.53;1.67;;;9.40;99.90;;;;;;943283;149;27919;-79
2022/11/21 03:18:12;;;;;;;5.33;2.20;;;9.40;99.90;;;;;;943478;148;27383;-79
2022/11/21 03:20:39;;;;;;;6.57;2.07;;;9.40;99.90;;;;;;943564;148;27360;-80
2022/11/21 03:23:05;;;;;;;5.40;2.00;;;9.40;99.90;;;;;;944068;149;27373;-77
2022/11/21 03:25:32;;;;;;;5.70;1.97;;;9.40;99.90;;;;;;943594;149;27345;-80
2022/11/21 03:27:58;;;;;;;5.23;1.90;;;9.40;99.90;;;;;;943548;152;27316;-78
2022/11/21 03:30:25;;;;;;;6.20;2.03;;;9.50;99.90;;;;;;944132;149;27417;-82
2022/11/21 03:32:51;;;;;;;5.57;2.67;;;9.50;99.90;;;;;;944115;148;27408;-81
2022/11/21 03:35:18;;;;;;;4.17;2.30;;;9.50;99.90;;;;;;943221;149;27442;-81
2022/11/21 03:37:45;;;;;;;6.00;2.30;;;9.50;99.90;;;;;;944403;148;27325;-81
2022/11/21 03:40:11;;;;;;;4.80;1.90;;;9.50;99.90;;;;;;943473;148;27404;-81
2022/11/21 03:42:38;;;;;;;5.33;1.70;;;9.50;99.90;;;;;;943239;149;27391;-81
2022/11/21 03:45:04;;;;;;;6.17;1.90;;;9.50;99.90;;;;;;942849;149;27367;-80
2022/11/21 03:47:31;;;;;;;7.97;2.60;;;9.50;99.90;;;;;;943894;148;27357;-81
2022/11/21 03:49:58;;;;;;;6.93;2.03;;;9.50;99.90;;;;;;944317;148;27341;-82
2022/11/21 03:52:24;;;;;;;5.13;1.80;;;9.40;99.90;;;;;;943905;148;27307;-82
2022/11/21 03:54:51;;;;;;;6.80;2.10;;;9.40;99.90;;;;;;944651;148;27334;-81
2022/11/21 03:57:17;;;;;;;3.87;1.90;;;9.40;99.90;;;;;;943557;149;27431;-80
2022/11/21 03:59:44;;;;;;;4.10;2.50;;;9.40;99.90;;;;;;943910;148;27419;-75
2022/11/21 04:02:10;;;;;;;3.93;2.00;;;9.30;99.90;;;;;;944052;149;27441;-76
2022/11/21 04:04:37;;;;;;;4.30;2.23;;;9.30;99.90;;;;;;943013;149;27359;-75
2022/11/21 04:07:04;;;;;;;4.37;1.80;;;9.20;99.90;;;;;;944648;149;27306;-76
2022/11/21 04:09:30;;;;;;;5.70;2.43;;;9.20;99.90;;;;;;944308;149;27391;-77
2022/11/21 04:11:57;;;;;;;6.37;2.03;;;9.10;99.90;;;;;;943534;149;27369;-80
2022/11/21 04:14:23;;;;;;;4.07;1.67;;;9.10;99.90;;;;;;944011;149;27364;-76
2022/11/21 04:16:50;;;;;;;5.40;2.03;;;9.00;99.90;;;;;;943623;148;27329;-76
2022/11/21 04:19:17;;;;;;;6.90;1.87;;;9.00;99.90;;;;;;944271;148;27876;-76
2022/11/21 04:21:43;;;;;;;4.30;2.00;;;8.90;99.90;;;;;;944023;149;27433;-77
2022/11/21 04:24:10;;;;;;;9.33;2.77;;;8.90;99.90;;;;;;943540;149;27347;-79
2022/11/21 04:26:36;;;;;;;5.43;2.00;;;8.90;99.90;;;;;;943124;148;27377;-77
2022/11/21 04:29:03;;;;;;;3.43;1.70;;;8.80;99.90;;;;;;944058;148;27332;-76
2022/11/21 04:31:30;;;;;;;5.07;1.80;;;8.80;99.90;;;;;;942989;149;27425;-76
2022/11/21 04:33:56;;;;;;;4.83;2.00;;;8.80;99.90;;;;;;938103;151;27476;-76
2022/11/21 04:36:23;;;;;;;3.93;2.10;;;8.80;99.90;;;;;;935049;151;27876;-80
2022/11/21 04:38:49;;;;;;;4.83;2.30;;;8.80;99.90;;;;;;937280;151;27382;-77
2022/11/21 04:41:16;;;;;;;2.47;1.70;;;8.70;99.90;;;;;;938796;151;27483;-78
2022/11/21 04:43:42;;;;;;;5.53;2.07;;;8.70;99.90;;;;;;938700;151;27483;-76
2022/11/21 04:46:09;;;;;;;4.67;1.90;;;8.80;99.90;;;;;;936968;151;27327;-79
2022/11/21 04:48:36;;;;;;;5.57;1.97;;;8.80;99.90;;;;;;925809;151;27369;-78
2022/11/21 04:51:02;;;;;;;4.10;1.70;;;8.80;99.90;;;;;;958528;147;27460;-80
2022/11/21 04:53:29;;;;;;;3.17;1.70;;;8.90;99.90;;;;;;960019;145;27341;-76
2022/11/21 04:55:55;;;;;;;2.73;1.60;;;8.90;99.90;;;;;;957446;147;27315;-79
2022/11/21 04:58:22;;;;;;;2.03;1.20;;;8.90;99.90;;;;;;958725;147;27245;-77
2022/11/21 05:00:49;;;;;;;3.97;1.70;;;8.90;99.90;;;;;;959564;147;27377;-76
2022/11/21 05:03:15;;;;;;;3.43;1.53;;;8.90;99.90;;;;;;939896;151;27435;-79
2022/11/21 05:05:42;;;;;;;2.60;1.33;;;8.90;99.90;;;;;;938293;151;27848;-77
2022/11/21 05:08:08;;;;;;;4.00;1.70;;;8.90;99.90;;;;;;940222;148;27668;-76
2022/11/21 05:13:19;;;;;;;2.53;1.43;;;8.90;99.90;;;;;;935165;151;27368;-76
2022/11/21 05:13:20;;;;;;;4.37;1.80;;;8.90;99.90;;;;;;933729;149;27353;-76
2022/11/21 05:15:50;;;;;;;2.00;1.50;;;8.90;99.90;;;;;;938097;151;27393;-79
2022/11/21 05:18:13;;;;;;;4.60;1.77;;;8.80;99.90;;;;;;935293;151;27400;-80
2022/11/21 05:20:39;;;;;;;4.20;1.53;;;8.90;99.90;;;;;;937799;151;27500;-76
2022/11/21 05:23:06;;;;;;;2.77;1.47;;;8.90;99.90;;;;;;939097;151;27457;-77
2022/11/21 05:25:33;;;;;;;3.33;1.63;;;8.90;99.90;;;;;;935814;151;27977;-76
2022/11/21 05:27:59;;;;;;;3.97;1.83;;;8.90;99.90;;;;;;936159;151;27331;-76
2022/11/21 05:30:26;;;;;;;2.87;1.63;;;8.90;99.90;;;;;;937846;151;27409;-81
2022/11/21 05:32:52;;;;;;;3.40;1.73;;;8.90;99.90;;;;;;939569;148;27389;-76
2022/11/21 05:35:19;;;;;;;4.93;2.03;;;8.90;99.90;;;;;;943803;148;27325;-80
2022/11/21 05:37:45;;;;;;;3.40;1.70;;;8.90;99.90;;;;;;926223;151;27279;-77
2022/11/21 05:40:12;;;;;;;4.43;1.60;;;8.90;99.90;;;;;;942695;148;27328;-77
2022/11/21 05:45:23;;;;;;;4.70;1.70;;;8.80;99.90;;;;;;943706;148;27441;-77
2022/11/21 05:47:50;;;;;;;2.77;1.63;;;8.90;99.90;;;;;;943668;148;27321;-77
2022/11/21 05:50:16;;;;;;;2.57;1.63;;;8.90;99.90;;;;;;944689;148;27302;-76
2022/11/21 05:52:43;;;;;;;5.10;1.63;;;8.90;99.90;;;;;;944498;148;27329;-77
2022/11/21 05:55:09;;;;;;;3.40;1.90;;;8.90;99.90;;;;;;956085;147;27426;-80
2022/11/21 05:57:36;;;;;;;4.97;1.50;;;8.90;99.90;;;;;;944636;148;27395;-77
2022/11/21 06:00:03;;;;;;;4.63;1.43;;;9.00;99.90;;;;;;943945;148;28589;-78
2022/11/21 06:05:14;;;;;;;5.20;1.73;;;9.00;99.90;;;;;;943981;148;27435;-77
2022/11/21 06:07:41;;;;;;;3.67;1.70;;;9.00;99.90;;;;;;944845;148;27322;-77
2022/11/21 06:10:07;;;;;;;2.50;2.10;;;9.00;99.90;;;;;;943868;148;27473;-80
2022/11/21 06:12:34;;;;;;;5.80;2.20;;;9.00;99.90;;;;;;944880;148;27349;-76
2022/11/21 06:15:00;;;;;;;3.40;1.80;;;9.00;99.90;;;;;;944005;148;27353;-78
2022/11/21 06:17:27;;;;;;;5.63;2.10;;;9.00;99.90;;;;;;941858;149;27300;-77
2022/11/21 06:19:53;;;;;;;3.17;2.20;;;9.00;99.90;;;;;;941282;149;27474;-77
2022/11/21 06:22:20;;;;;;;8.53;1.80;;;9.00;99.90;;;;;;942410;149;27281;-80
2022/11/21 06:24:47;;;;;;;2.07;1.43;;;9.00;99.90;;;;;;941514;149;27381;-79
2022/11/21 06:27:13;;;;;;;3.67;1.57;;;9.00;99.90;;;;;;942547;149;28315;-78
2022/11/21 06:29:40;;;;;;;3.77;1.90;;;9.00;99.90;;;;;;942480;149;27413;-76
2022/11/21 06:32:06;;;;;;;2.60;1.90;;;9.00;99.90;;;;;;941527;149;27323;-77
2022/11/21 06:34:33;;;;;;;5.73;1.70;;;9.10;99.90;;;;;;936917;149;27376;-79
2022/11/21 06:37:00;;;;;;;1.47;1.20;;;9.10;99.90;;;;;;957445;148;27454;-77
2022/11/21 06:39:26;;;;;;;2.97;1.80;;;9.10;99.90;;;;;;957327;148;27356;-78
2022/11/21 06:41:53;;;;;;;3.77;1.53;;;9.10;99.90;;;;;;957427;148;27301;-77
2022/11/21 06:44:19;;;;;;;2.20;1.50;;;9.20;99.90;;;;;;954670;148;27439;-76
2022/11/21 06:46:46;;;;;;;2.37;1.40;;;9.20;99.90;;;;;;956633;148;27334;-81
2022/11/21 06:49:12;;;;;;;2.13;1.77;;;9.20;99.90;;;;;;955369;148;28016;-77
2022/11/21 06:51:39;;;;;;;4.47;1.67;;;9.20;99.90;;;;;;955547;148;27325;-77
2022/11/21 06:54:06;;;;;;;2.67;1.60;;;9.20;99.90;;;;;;954819;148;27405;-76
2022/11/21 06:56:32;;;;;;;2.33;1.90;;;9.20;99.90;;;;;;956234;148;27314;-77
2022/11/21 06:58:59;;;;;;;4.30;1.50;;;9.20;99.90;;;;;;956484;148;27294;-81
2022/11/21 07:01:25;;;;;;;1.93;1.70;;;9.10;99.90;;;;;;957554;148;27501;-76
2022/11/21 07:03:52;;;;;;;1.83;1.33;;;9.10;99.90;;;;;;956586;148;28003;-77
2022/11/21 07:06:19;;;;;;;4.50;1.57;;;9.10;99.90;;;;;;957513;148;27260;-77
2022/11/21 07:08:45;;;;;;;2.13;1.23;;;9.00;99.90;;;;;;959634;148;27423;-79
2022/11/21 07:11:12;;;;;;;1.63;1.27;;;9.00;99.90;;;;;;956906;148;27377;-78
2022/11/21 07:13:38;;;;;;;2.33;1.50;;;9.00;99.90;;;;;;954587;148;27451;-82
2022/11/21 07:16:05;;;;;;;2.77;1.57;;;9.00;99.90;;;;;;958659;148;27760;-80
2022/11/21 07:18:32;;;;;;;4.63;1.50;;;9.00;99.90;;;;;;956312;146;27277;-80
2022/11/21 07:20:58;;;;;;;2.67;1.40;;;9.00;99.90;;;;;;957867;145;27281;-80
2022/11/21 07:23:25;;;;;;;3.83;1.50;;;9.00;99.90;;;;;;959925;148;27358;-80
2022/11/21 07:25:51;;;;;;;2.03;1.57;;;9.10;99.90;;;;;;959003;148;27418;-82
2022/11/21 07:28:18;;;;;;;6.27;1.60;;;9.10;99.90;;;;;;956606;147;27417;-80
2022/11/21 07:30:44;;;;;;;1.50;1.40;;;9.10;99.90;;;;;;956418;148;27277;-80
2022/11/21 07:33:11;;;;;;;2.23;1.30;;;9.10;99.90;;;;;;955060;148;27456;-80
2022/11/21 07:35:38;;;;;;;1.77;1.40;;;9.20;99.90;;;;;;947838;148;27776;-80
2022/11/21 07:38:04;;;;;;;1.90;1.40;;;9.20;99.90;;;;;;943668;148;27308;-82
2022/11/21 07:40:33;;;;;;;1.53;1.20;;;9.30;99.90;;;;;;943775;148;27349;-80
2022/11/21 07:43:00;;;;;;;1.77;1.10;;;9.30;99.90;;;;;;927111;150;27438;-80
2022/11/21 07:45:27;;;;;;;1.93;1.57;;;9.40;99.90;;;;;;941676;149;27694;-80
2022/11/21 07:47:59;;;;;;;1.73;1.23;;;9.40;99.90;;;;;;942217;149;27366;-80
2022/11/21 07:50:25;;;;;;;2.00;1.03;;;9.50;99.90;;;;;;941853;149;27470;-80
2022/11/21 07:52:52;;;;;;;2.37;1.40;;;9.50;99.90;;;;;;942301;149;27432;-80
2022/11/21 07:55:19;;;;;;;2.67;1.27;;;9.60;99.90;;;;;;941891;148;27390;-79
2022/11/21 07:57:45;;;;;;;3.13;1.40;;;9.60;99.90;;;;;;941929;149;27607;-80
2022/11/21 08:00:12;;;;;;;1.83;1.33;;;9.60;99.90;;;;;;940822;149;27414;-81
2022/11/21 08:02:39;;;;;;;1.17;1.07;;;9.70;99.90;;;;;;942399;149;27320;-81
2022/11/21 08:05:05;;;;;;;2.53;1.20;;;9.80;99.90;;;;;;942200;149;27449;-81
2022/11/21 08:07:32;;;;;;;1.30;1.03;;;9.80;99.90;;;;;;943170;149;27365;-80
2022/11/21 08:09:58;;;;;;;1.77;1.07;;;9.90;99.90;;;;;;942091;149;27357;-80
2022/11/21 08:12:25;;;;;;;4.13;1.53;;;9.90;99.90;;;;;;942169;149;27282;-81
2022/11/21 08:14:52;;;;;;;1.53;1.07;;;10.00;99.90;;;;;;942620;149;27426;-81
2022/11/21 08:17:18;;;;;;;2.77;1.30;;;10.10;99.90;;;;;;940815;149;27372;-79
2022/11/21 08:19:45;;;;;;;2.57;1.57;;;10.10;99.90;;;;;;941394;149;27432;-81
2022/11/21 08:22:11;;;;;;;2.40;1.33;;;10.20;99.90;;;;;;941486;149;27401;-80
2022/11/21 08:24:38;;;;;;;1.83;1.30;;;10.30;99.90;;;;;;942554;149;27477;-80
2022/11/21 08:27:04;;;;;;;3.33;1.57;;;10.40;99.90;;;;;;941500;149;27415;-81
2022/11/21 08:29:31;;;;;;;2.10;1.30;;;10.40;99.90;;;;;;942012;149;27483;-80
2022/11/21 08:31:58;;;;;;;1.17;0.90;;;10.50;99.90;;;;;;942268;149;27340;-80
2022/11/21 08:34:24;;;;;;;2.63;1.37;;;10.50;99.90;;;;;;939357;149;27445;-80
2022/11/21 08:36:52;;;;;;;3.03;1.40;;;10.50;99.90;;;;;;929633;151;27822;-80
2022/11/21 08:39:17;;;;;;;2.30;1.50;;;10.60;99.90;;;;;;929941;151;27796;-80
2022/11/21 08:42:02;;;;;;;1.93;1.07;;;10.60;99.90;;;;;;928275;152;27480;-82
2022/11/21 08:44:31;;;;;;;7.80;1.93;;;10.60;99.90;;;;;;947765;148;27342;-81
2022/11/21 08:46:58;;;;;;;8.13;2.20;;;10.70;99.90;;;;;;934807;151;27352;-80
2022/11/21 08:49:25;;;;;;;7.03;1.73;;;10.70;99.90;;;;;;945395;149;27308;-80
2022/11/21 08:51:51;;;;;;;4.97;1.97;;;10.70;99.90;;;;;;945335;151;27318;-80
2022/11/21 08:54:18;;;;;;;3.20;1.47;;;10.70;99.90;;;;;;944133;149;27691;-82
2022/11/21 08:56:44;;;;;;;2.70;1.27;;;10.80;99.90;;;;;;945420;149;27331;-81
2022/11/21 08:59:11;;;;;;;2.40;1.33;;;10.80;99.90;;;;;;944913;149;27414;-80
2022/11/21 09:01:37;;;;;;;4.33;1.90;;;10.80;99.90;;;;;;944389;149;27354;-80
2022/11/21 09:04:04;;;;;;;7.27;2.50;;;10.90;99.90;;;;;;945492;149;27814;-81
2022/11/21 09:06:31;;;;;;;4.53;2.37;;;10.90;99.90;;;;;;945165;149;27839;-81
2022/11/21 09:08:57;;;;;;;5.33;2.10;;;10.90;99.90;;;;;;944817;149;27486;-80
2022/11/21 09:11:27;;;;;;;6.90;2.30;;;11.00;99.90;;;;;;944745;149;27924;-80
2022/11/21 09:19:22;;;;;;;11.67;1.83;;;11.30;99.90;;;;;;944489;151;27554;-82
2022/11/21 09:21:49;;;;;;;2.67;1.43;;;11.40;99.90;;;;;;945250;151;27474;-80
2022/11/21 09:24:16;;;;;;;1.10;1.00;;;11.50;99.90;;;;;;945752;148;27376;-80
2022/11/21 09:26:42;;;;;;;6.67;2.07;;;11.50;99.90;;;;;;945425;148;27374;-79
2022/11/21 09:29:13;;;;;;;3.10;1.50;;;11.60;99.90;;;;;;945694;148;27422;-81
2022/11/21 09:31:38;;;;;;;3.57;1.73;;;11.60;99.90;;;;;;944045;148;27355;-82
2022/11/21 09:34:05;;;;;;;2.97;1.43;;;11.70;99.90;;;;;;945370;148;27363;-80
2022/11/21 09:36:31;;;;;;;2.80;1.67;;;11.70;99.90;;;;;;948033;148;27324;-80
2022/11/21 09:38:58;;;;;;;1.70;1.20;;;11.70;99.90;;;;;;947593;148;27435;-81
2022/11/21 09:44:46;;;;;;;0.90;0.90;;;11.70;99.30;;;;;;947306;148;27434;-80
2022/11/21 09:47:34;;;;;;;2.53;1.43;;;11.70;99.10;;;;;;948651;150;27883;-80
2022/11/21 09:50:12;;;;;;;1.93;1.03;;;11.70;99.00;;;;;;948931;148;27403;-80
2022/11/21 09:52:48;;;;;;;3.97;1.40;;;11.70;99.00;;;;;;947518;148;27371;-79
2022/11/21 09:55:20;;;;;;;5.17;1.40;;;11.70;99.10;;;;;;947995;148;27873;-80
2022/11/21 09:57:47;;;;;;;3.57;1.37;;;11.70;99.90;;;;;;947592;148;27365;-79
2022/11/21 10:00:20;;;;;;;3.27;1.50;;;11.80;99.90;;;;;;948086;148;27382;-81
2022/11/21 10:02:46;;;;;;;3.07;1.40;;;11.90;99.90;;;;;;947002;148;27856;-81
2022/11/21 10:05:13;;;;;;;4.10;1.60;;;12.00;99.90;;;;;;947869;148;27386;-79
2022/11/21 10:07:39;;;;;;;2.13;1.50;;;12.20;99.90;;;;;;948320;148;27343;-79
2022/11/21 10:10:27;;;;;;;1.53;1.20;;;12.30;99.70;;;;;;948397;150;27308;-81
2022/11/21 10:13:05;;;;;;;1.03;1.00;;;12.40;99.00;;;;;;947829;149;27914;-80
2022/11/21 10:15:40;;;;;;;2.17;1.50;;;12.50;98.50;;;;;;946677;148;27370;-79
2022/11/21 10:18:38;;;;;;;2.33;1.30;;;12.50;98.10;;;;;;945626;148;27438;-80
2022/11/21 10:21:19;;;;;;;2.60;1.20;;;12.50;97.90;;;;;;945348;151;27405;-79
2022/11/21 10:23:51;;;;;;;3.23;1.50;;;12.60;97.60;;;;;;947248;151;27332;-79
2022/11/21 10:26:20;;;;;;;13.37;3.37;;;12.60;96.90;;;;;;946274;148;27445;-81
2022/11/21 10:28:59;;;;;;;2.70;1.20;;;12.60;96.30;;;;;;947809;151;27371;-80
2022/11/21 10:34:01;;;;;;;2.20;1.50;;;12.60;95.80;;;;;;975194;144;37139;-78
2022/11/21 10:36:34;;;;;;;1.90;1.40;;;12.50;95.20;;;;;;962790;147;27391;-78
2022/11/21 10:39:00;;;;;;;4.10;1.77;;;12.50;95.20;;;;;;962653;147;27313;-79
2022/11/21 10:41:27;;;;;;;2.30;1.40;;;12.50;95.40;;;;;;960937;147;27439;-78
2022/11/21 10:46:41;;;;;;;3.07;1.60;;;12.50;96.00;;;;;;961916;147;27435;-78
2022/11/21 10:49:08;;;;;;;2.13;1.30;;;12.60;96.50;;;;;;957697;147;27411;-79
2022/11/21 10:51:52;;;;;;;1.62;1.30;;;12.70;96.40;;;;;;961728;147;27741;-78
2022/11/21 10:54:35;;;;;;;2.93;1.17;;;12.80;96.10;;;;;;961094;147;27318;-78
2022/11/21 10:57:12;;;;;;;1.87;1.30;;;12.90;95.80;;;;;;961426;146;27311;-79
2022/11/21 10:59:39;;;;;;;1.55;1.17;;;13.00;95.80;;;;;;960666;147;27960;-78
2022/11/21 11:02:14;;;;;;;1.83;1.40;;;13.10;95.40;;;;;;961888;147;27347;-78
2022/11/21 11:04:41;;;;;;;2.60;1.20;;;13.10;95.00;;;;;;962114;147;28037;-78
2022/11/21 11:07:22;;;;;;;2.70;1.20;;;13.20;94.60;;;;;;961021;146;27290;-77
2022/11/21 11:09:51;;;;;;;1.90;1.30;;;13.20;93.90;;;;;;948567;147;27351;-77
2022/11/21 11:15:19;;;;;;;1.57;0.80;;;13.30;93.20;;;;;;948784;149;27529;-79
2022/11/21 11:17:45;;;;;;;1.67;1.27;;;13.30;93.50;;;;;;948274;149;27422;-79
2022/11/21 11:20:36;;;;;;;2.67;1.27;;;13.30;92.90;;;;;;949927;149;27428;-79
2022/11/21 11:23:23;;;;;;;1.97;1.10;;;13.40;92.40;;;;;;950897;149;27338;-80
2022/11/21 11:25:47;;;;;;;3.43;1.37;;;13.40;92.30;;;;;;948052;149;27348;-79
2022/11/21 11:28:14;;;;;;;1.50;1.23;;;13.50;92.20;;;;;;948456;148;27293;-79
2022/11/21 11:30:40;;;;;;;1.30;1.20;;;13.50;91.60;;;;;;948145;149;27774;-79
2022/11/21 11:33:07;;;;;;;2.27;1.40;;;13.50;91.00;;;;;;944097;149;27426;-80
2022/11/21 11:35:33;;;;;;;4.50;1.50;;;13.50;90.50;;;;;;917100;149;27378;-78
2022/11/21 11:38:03;;;;;;;2.47;1.07;;;13.40;89.30;;;;;;933269;149;27353;-79
2022/11/21 11:40:32;;;;;;;1.17;1.07;;;13.40;88.80;;;;;;933753;149;27390;-79
2022/11/21 11:49:14;;;;;;;2.07;1.10;;;13.10;89.60;;;;;;933960;149;27350;-76
2022/11/21 11:51:47;;;;;;;1.67;1.13;;;13.00;90.00;;;;;;932461;149;27351;-77
2022/11/21 11:54:17;;;;;;;2.77;1.23;;;13.00;89.90;;;;;;930946;149;27462;-77
2022/11/21 11:56:43;;;;;;;1.63;1.10;;;12.90;90.00;;;;;;930188;149;27344;-78
2022/11/21 11:59:12;;;;;;;2.03;1.30;;;12.90;90.10;;;;;;932659;149;27310;-77
2022/11/21 12:01:43;;;;;;;5.10;1.57;;;12.90;90.10;;;;;;932987;149;27455;-78
2022/11/21 12:04:11;;;;;;;2.60;1.37;;;12.90;90.10;;;;;;930014;149;27374;-77
2022/11/21 12:06:40;;;;;;;1.23;0.90;;;12.90;90.00;;;;;;931430;149;27358;-77
2022/11/21 12:09:13;;;;;;;1.17;1.07;;;12.80;89.80;;;;;;929370;149;27375;-78
2022/11/21 12:12:14;;;;;;;1.77;1.27;;;12.80;89.60;;;;;;930143;149;27313;-79
2022/11/21 12:17:33;;;;;;;1.63;1.30;;;12.80;89.50;;;;;;932601;149;27857;-80
2022/11/21 12:20:00;;;;;;;2.13;1.33;;;12.70;89.30;;;;;;932620;149;27281;-79
2022/11/21 12:22:26;;;;;;;1.73;1.43;;;12.70;89.20;;;;;;932341;149;27342;-79
2022/11/21 12:24:53;;;;;;;5.30;1.43;;;12.70;89.30;;;;;;933125;149;27514;-79
2022/11/21 12:27:31;;;;;;;1.03;1.03;;;12.70;89.20;;;;;;935708;149;27366;-79
2022/11/21 12:30:19;;;;;;;1.93;1.00;;;12.70;89.30;;;;;;931396;149;29275;-79
2022/11/21 12:32:55;;;;;;;2.10;1.33;;;12.80;88.40;;;;;;931638;149;27443;-78
2022/11/21 12:35:24;;;;;;;1.73;1.37;;;12.80;89.20;;;;;;949463;148;27305;-78
2022/11/21 12:37:53;;;;;;;3.23;1.97;;;12.80;88.90;;;;;;947777;149;27331;-78
2022/11/21 12:40:29;;;;;;;4.60;1.90;;;12.80;88.60;;;;;;948285;148;27456;-77
2022/11/21 12:43:07;;;;;;;2.07;1.40;;;12.80;88.20;;;;;;950090;149;27398;-78
2022/11/21 12:45:34;;;;;;;1.77;1.10;;;12.70;87.70;;;;;;932430;149;27304;-78
2022/11/21 12:54:48;;;;;;;3.73;1.20;;;12.60;86.80;;;;;;902235;152;27551;-78
2022/11/21 12:57:18;;;;;;;1.60;1.17;;;12.60;86.60;;;;;;949733;149;27334;-78
2022/11/21 12:59:59;;;;;;;1.60;0.87;;;12.50;86.50;;;;;;948948;149;27309;-78
2022/11/21 13:02:59;;;;;;;2.00;1.10;;;12.50;86.50;;;;;;946840;149;27337;-79
2022/11/21 13:05:37;;;;;;;1.43;1.33;;;12.40;86.50;;;;;;900263;155;27370;-78
2022/11/21 13:08:10;;;;;;;2.20;2.00;;;12.40;86.50;;;;;;935411;149;27481;-77
2022/11/21 13:10:36;;;;;;;2.13;1.50;;;12.40;86.70;;;;;;947902;147;27391;-78
2022/11/21 13:13:08;;;;;;;2.50;1.30;;;12.40;86.70;;;;;;945850;149;27344;-78
2022/11/21 13:15:38;;;;;;;1.60;1.50;;;12.40;86.70;;;;;;947517;149;27341;-78
2022/11/21 13:18:17;;;;;;;2.53;1.83;;;12.40;87.00;;;;;;946016;149;27475;-78
2022/11/21 13:20:46;;;;;;;2.37;1.47;;;12.40;87.10;;;;;;949390;149;27327;-78
2022/11/21 13:23:34;;;;;;;1.57;1.07;;;12.50;87.00;;;;;;947219;147;27450;-78
2022/11/21 13:26:01;;;;;;;4.67;1.60;;;12.50;86.90;;;;;;949422;149;27373;-79
2022/11/21 13:28:31;;;;;;;3.17;1.70;;;12.50;87.00;;;;;;946362;149;27369;-78
2022/11/21 13:30:57;;;;;;;1.87;1.20;;;12.50;86.70;;;;;;948284;149;27417;-79
2022/11/21 13:33:38;;;;;;;1.80;1.37;;;12.50;86.40;;;;;;947752;147;27377;-78
2022/11/21 13:36:29;;;;;;;2.67;1.47;;;12.50;86.20;;;;;;948415;149;27409;-79
2022/11/21 13:38:58;;;;;;;1.70;1.33;;;12.60;86.50;;;;;;947519;149;27274;-79